KBMT

Beaumont Municipal Airport

Beaumont, Texas, USA
METAR KBMT 232115Z AUTO 36007KT 10SM SCT040 17/14 A3011 RMK AO2 T01650139
Observed Flight Rules
Oct-23 @ 21:15 UTC (18 minutes ago) Visual Flight Rules
Wind Visibility Clouds
360° at 7 knots 10 miles
  • Scattered at 4,000' AGL
Temperatures Readings
Current 17°C / 63°F
Dewpoint 14°C / 57°F
Humidity 83%
Altimeter 30.11" Hg
Pressure 1020 hPa
Elevation 10
METAR KBMT 232115Z AUTO 36007KT 10SM SCT040 17/14 A3011 RMK AO2 T01650139
Observed Flight Rules
Oct-23 @ 21:15 UTC
(18 minutes ago)
VFR
Wind Visibility
360° at 7 knots 10 miles
Clouds
  • Scattered at 4,000' AGL
Temperature Dewpoint
17°C / 63°F 14°C / 57°F
Humidity Altimeter Pressure
83% 30.11" Hg 1020 hPa